sensor_id;sensor_type;location;lat;lon;timestamp;pressure;altitude;pressure_sealevel;temperature;humidity
65606;BME280;52276;48.906;2.384;2022-07-21T00:00:10;102004.9987793;;;24.5;42.8
65606;BME280;52276;48.906;2.384;2022-07-21T00:01:10;102004.9987793;;;24.5;42.8
65606;BME280;52276;48.906;2.384;2022-07-21T00:02:09;102004.9987793;;;24.4;42.8
65606;BME280;52276;48.906;2.384;2022-07-21T00:03:10;102004.9987793;;;24.4;42.8
65606;BME280;52276;48.906;2.384;2022-07-21T00:04:09;102004.9987793;;;24.4;42.8
65606;BME280;52276;48.906;2.384;2022-07-21T00:05:10;102004.9987793;;;24.5;42.8
65606;BME280;52276;48.906;2.384;2022-07-21T00:06:10;102004.9987793;;;24.4;42.9
65606;BME280;52276;48.906;2.384;2022-07-21T00:07:10;102004.9987793;;;24.4;42.7
65606;BME280;52276;48.906;2.384;2022-07-21T00:08:10;102004.9987793;;;24.4;42.8
65606;BME280;52276;48.906;2.384;2022-07-21T00:09:10;102004.9987793;;;24.4;42.8
65606;BME280;52276;48.906;2.384;2022-07-21T00:10:10;102004.9987793;;;24.4;42.8
65606;BME280;52276;48.906;2.384;2022-07-21T00:11:10;102004.9987793;;;24.4;41.5
65606;BME280;52276;48.906;2.384;2022-07-21T00:12:10;102004.9987793;;;24.4;42.9
65606;BME280;52276;48.906;2.384;2022-07-21T00:13:10;102004.9987793;;;24.4;42.9
65606;BME280;52276;48.906;2.384;2022-07-21T00:14:10;102004.9987793;;;24.4;42.9
65606;BME280;52276;48.906;2.384;2022-07-21T00:15:10;102004.9987793;;;24.4;42.9
65606;BME280;52276;48.906;2.384;2022-07-21T00:16:10;102004.9987793;;;24.4;43
65606;BME280;52276;48.906;2.384;2022-07-21T00:17:10;102004.9987793;;;24.4;43
65606;BME280;52276;48.906;2.384;2022-07-21T00:18:10;102004.9987793;;;24.4;42.9
65606;BME280;52276;48.906;2.384;2022-07-21T00:19:10;102004.9987793;;;24.4;43
65606;BME280;52276;48.906;2.384;2022-07-21T00:20:11;102004.9987793;;;24.4;43.2
65606;BME280;52276;48.906;2.384;2022-07-21T00:21:10;102004.9987793;;;24.4;43.1
65606;BME280;52276;48.906;2.384;2022-07-21T00:22:10;102004.9987793;;;24.4;41.9
65606;BME280;52276;48.906;2.384;2022-07-21T00:23:10;102004.9987793;;;24.4;43.1
65606;BME280;52276;48.906;2.384;2022-07-21T00:24:10;102004.9987793;;;24.4;41.8
65606;BME280;52276;48.906;2.384;2022-07-21T00:25:10;102004.9987793;;;24.4;43.1
65606;BME280;52276;48.906;2.384;2022-07-21T00:26:10;102004.9987793;;;24.4;43.1
65606;BME280;52276;48.906;2.384;2022-07-21T00:27:10;102004.9987793;;;24.4;43.2
65606;BME280;52276;48.906;2.384;2022-07-21T00:28:10;102004.9987793;;;24.4;43.2
65606;BME280;52276;48.906;2.384;2022-07-21T00:29:10;102004.9987793;;;24.4;43.2
65606;BME280;52276;48.906;2.384;2022-07-21T00:30:11;102004.9987793;;;24.3;43.1
65606;BME280;52276;48.906;2.384;2022-07-21T00:31:10;102004.9987793;;;24.4;43.2
65606;BME280;52276;48.906;2.384;2022-07-21T00:32:10;102004.9987793;;;24.3;43.2
65606;BME280;52276;48.906;2.384;2022-07-21T00:33:10;102004.9987793;;;24.3;43.2
65606;BME280;52276;48.906;2.384;2022-07-21T00:34:10;102004.9987793;;;24.3;43.2
65606;BME280;52276;48.906;2.384;2022-07-21T00:35:10;102004.9987793;;;24.3;43.2
65606;BME280;52276;48.906;2.384;2022-07-21T00:36:10;102004.9987793;;;24.3;43.2
65606;BME280;52276;48.906;2.384;2022-07-21T00:37:10;102004.9987793;;;24.3;42
65606;BME280;52276;48.906;2.384;2022-07-21T00:38:10;102004.9987793;;;24.3;43.4
65606;BME280;52276;48.906;2.384;2022-07-21T00:39:10;102004.9987793;;;24.3;43.4
65606;BME280;52276;48.906;2.384;2022-07-21T00:40:11;102004.9987793;;;24.3;43.5
65606;BME280;52276;48.906;2.384;2022-07-21T00:41:10;102004.9987793;;;24.3;43.4
65606;BME280;52276;48.906;2.384;2022-07-21T00:42:19;102004.9987793;;;24.3;43.5
65606;BME280;52276;48.906;2.384;2022-07-21T00:43:10;102004.9987793;;;24.3;43.5
65606;BME280;52276;48.906;2.384;2022-07-21T00:44:18;102004.9987793;;;24.3;43.5
65606;BME280;52276;48.906;2.384;2022-07-21T00:45:10;102004.9987793;;;24.3;43.5
65606;BME280;52276;48.906;2.384;2022-07-21T00:46:10;102004.9987793;;;24.3;43.6
65606;BME280;52276;48.906;2.384;2022-07-21T00:47:10;102004.9987793;;;24.3;43.6
65606;BME280;52276;48.906;2.384;2022-07-21T00:48:10;102004.9987793;;;24.3;43.7
65606;BME280;52276;48.906;2.384;2022-07-21T00:49:10;102004.9987793;;;24.3;43.7
65606;BME280;52276;48.906;2.384;2022-07-21T00:50:11;102004.9987793;;;24.3;42.3
65606;BME280;52276;48.906;2.384;2022-07-21T00:51:10;102004.9987793;;;24.3;43.6
65606;BME280;52276;48.906;2.384;2022-07-21T00:52:10;102004.9987793;;;24.3;43.7
65606;BME280;52276;48.906;2.384;2022-07-21T00:53:10;102004.9987793;;;24.3;43.7
65606;BME280;52276;48.906;2.384;2022-07-21T00:54:10;102004.9987793;;;24.3;43.8
65606;BME280;52276;48.906;2.384;2022-07-21T00:55:11;102004.9987793;;;24.3;43.8
65606;BME280;52276;48.906;2.384;2022-07-21T00:56:10;102004.9987793;;;24.3;43.8
65606;BME280;52276;48.906;2.384;2022-07-21T00:57:10;102004.9987793;;;24.3;43.7
65606;BME280;52276;48.906;2.384;2022-07-21T00:58:10;102004.9987793;;;24.3;43.8
65606;BME280;52276;48.906;2.384;2022-07-21T00:59:10;102004.9987793;;;24.2;43.8
65606;BME280;52276;48.906;2.384;2022-07-21T01:00:11;102004.9987793;;;24.3;43.9
65606;BME280;52276;48.906;2.384;2022-07-21T01:01:10;102004.9987793;;;24.3;43.9
65606;BME280;52276;48.906;2.384;2022-07-21T01:02:10;102004.9987793;;;24.2;43.9
65606;BME280;52276;48.906;2.384;2022-07-21T01:03:10;102004.9987793;;;24.2;44
65606;BME280;52276;48.906;2.384;2022-07-21T01:04:10;102004.9987793;;;24.2;43.9
65606;BME280;52276;48.906;2.384;2022-07-21T01:05:10;102004.9987793;;;24.2;43.9
65606;BME280;52276;48.906;2.384;2022-07-21T01:06:10;102004.9987793;;;24.2;43.9
65606;BME280;52276;48.906;2.384;2022-07-21T01:07:10;102004.9987793;;;24.2;43.9
65606;BME280;52276;48.906;2.384;2022-07-21T01:08:10;102004.9987793;;;24.2;44
65606;BME280;52276;48.906;2.384;2022-07-21T01:09:10;102004.9987793;;;24.2;44
65606;BME280;52276;48.906;2.384;2022-07-21T01:10:10;102004.9987793;;;24.2;43.9
65606;BME280;52276;48.906;2.384;2022-07-21T01:11:10;102004.9987793;;;24.2;44
65606;BME280;52276;48.906;2.384;2022-07-21T01:12:10;102004.9987793;;;24.2;44
65606;BME280;52276;48.906;2.384;2022-07-21T01:13:10;102004.9987793;;;24.2;44
65606;BME280;52276;48.906;2.384;2022-07-21T01:14:10;102004.9987793;;;24.2;44
65606;BME280;52276;48.906;2.384;2022-07-21T01:15:10;102004.9987793;;;24.2;44
65606;BME280;52276;48.906;2.384;2022-07-21T01:16:10;102004.9987793;;;24.2;44
65606;BME280;52276;48.906;2.384;2022-07-21T01:17:10;102004.9987793;;;24.2;44
65606;BME280;52276;48.906;2.384;2022-07-21T01:18:10;102004.9987793;;;24.2;44
65606;BME280;52276;48.906;2.384;2022-07-21T01:19:10;102004.9987793;;;24.2;44
65606;BME280;52276;48.906;2.384;2022-07-21T01:20:11;102004.9987793;;;24.2;44.1
65606;BME280;52276;48.906;2.384;2022-07-21T01:21:14;102004.9987793;;;24.2;44.1
65606;BME280;52276;48.906;2.384;2022-07-21T01:22:10;102004.9987793;;;24.2;44.1
65606;BME280;52276;48.906;2.384;2022-07-21T01:23:10;102004.9987793;;;24.1;44
65606;BME280;52276;48.906;2.384;2022-07-21T01:24:10;102004.9987793;;;24.2;44.2
65606;BME280;52276;48.906;2.384;2022-07-21T01:25:10;102004.9987793;;;24.1;44.2
65606;BME280;52276;48.906;2.384;2022-07-21T01:26:10;102004.9987793;;;24.1;44.2
65606;BME280;52276;48.906;2.384;2022-07-21T01:27:10;102004.9987793;;;24.1;44.2
65606;BME280;52276;48.906;2.384;2022-07-21T01:28:10;102004.9987793;;;24.2;44.2
65606;BME280;52276;48.906;2.384;2022-07-21T01:29:10;102004.9987793;;;24.2;44.2
65606;BME280;52276;48.906;2.384;2022-07-21T01:30:11;102004.9987793;;;24.1;44.2
65606;BME280;52276;48.906;2.384;2022-07-21T01:31:10;102004.9987793;;;24.1;44.2
65606;BME280;52276;48.906;2.384;2022-07-21T01:32:10;102004.9987793;;;24.2;44.3
65606;BME280;52276;48.906;2.384;2022-07-21T01:33:10;102004.9987793;;;24.1;44.2
65606;BME280;52276;48.906;2.384;2022-07-21T01:34:10;102004.9987793;;;24.1;44.2
65606;BME280;52276;48.906;2.384;2022-07-21T01:35:10;102004.9987793;;;24.1;44.3
65606;BME280;52276;48.906;2.384;2022-07-21T01:36:10;102004.9987793;;;24.1;44.2
65606;BME280;52276;48.906;2.384;2022-07-21T01:37:10;102004.9987793;;;24.1;44.3
65606;BME280;52276;48.906;2.384;2022-07-21T01:38:10;102004.9987793;;;24.1;44.2
65606;BME280;52276;48.906;2.384;2022-07-21T01:39:10;102004.9987793;;;24.1;44.3
65606;BME280;52276;48.906;2.384;2022-07-21T01:40:10;102004.9987793;;;24.1;44.3
65606;BME280;52276;48.906;2.384;2022-07-21T01:41:10;102004.9987793;;;24.1;44.4
65606;BME280;52276;48.906;2.384;2022-07-21T01:42:10;102004.9987793;;;24.1;44.4
65606;BME280;52276;48.906;2.384;2022-07-21T01:43:10;102004.9987793;;;24.1;44.4
65606;BME280;52276;48.906;2.384;2022-07-21T01:44:10;102004.9987793;;;24.1;44.4
65606;BME280;52276;48.906;2.384;2022-07-21T01:45:10;102004.9987793;;;24.1;44.5
65606;BME280;52276;48.906;2.384;2022-07-21T01:46:10;102004.9987793;;;24.1;44.5
65606;BME280;52276;48.906;2.384;2022-07-21T01:47:10;102004.9987793;;;24.1;44.6
65606;BME280;52276;48.906;2.384;2022-07-21T01:48:10;102004.9987793;;;24.1;44.7
65606;BME280;52276;48.906;2.384;2022-07-21T01:49:10;102004.9987793;;;24.1;44.6
65606;BME280;52276;48.906;2.384;2022-07-21T01:50:10;102004.9987793;;;24.1;44.6
65606;BME280;52276;48.906;2.384;2022-07-21T01:51:10;102004.9987793;;;24.1;42.8
65606;BME280;52276;48.906;2.384;2022-07-21T01:52:10;102004.9987793;;;24;44.6
65606;BME280;52276;48.906;2.384;2022-07-21T01:53:10;102004.9987793;;;24;43.1
65606;BME280;52276;48.906;2.384;2022-07-21T01:54:10;102004.9987793;;;24;44.6
65606;BME280;52276;48.906;2.384;2022-07-21T01:55:10;102004.9987793;;;24;44.6
65606;BME280;52276;48.906;2.384;2022-07-21T01:56:10;102004.9987793;;;24;44.6
65606;BME280;52276;48.906;2.384;2022-07-21T01:57:10;102004.9987793;;;24;44.7
65606;BME280;52276;48.906;2.384;2022-07-21T01:58:10;102004.9987793;;;24;44.7
65606;BME280;52276;48.906;2.384;2022-07-21T01:59:10;102004.9987793;;;24;44.8
65606;BME280;52276;48.906;2.384;2022-07-21T02:00:10;102004.9987793;;;24;44.8
65606;BME280;52276;48.906;2.384;2022-07-21T02:01:10;102004.9987793;;;24;44.8
65606;BME280;52276;48.906;2.384;2022-07-21T02:02:10;102004.9987793;;;24;44.7
65606;BME280;52276;48.906;2.384;2022-07-21T02:03:10;102004.9987793;;;24;44.8
65606;BME280;52276;48.906;2.384;2022-07-21T02:04:10;102004.9987793;;;24;44.8
65606;BME280;52276;48.906;2.384;2022-07-21T02:05:10;102004.9987793;;;24;44.8
65606;BME280;52276;48.906;2.384;2022-07-21T02:06:10;102004.9987793;;;24;44.8
65606;BME280;52276;48.906;2.384;2022-07-21T02:07:10;102004.9987793;;;24;44.8
65606;BME280;52276;48.906;2.384;2022-07-21T02:08:10;102004.9987793;;;24;44.9
65606;BME280;52276;48.906;2.384;2022-07-21T02:09:10;102004.9987793;;;24;44.8
65606;BME280;52276;48.906;2.384;2022-07-21T02:10:10;102004.9987793;;;24;44.9
65606;BME280;52276;48.906;2.384;2022-07-21T02:11:10;102004.9987793;;;24;44.9
65606;BME280;52276;48.906;2.384;2022-07-21T02:12:10;102004.9987793;;;24;45
65606;BME280;52276;48.906;2.384;2022-07-21T02:13:10;102004.9987793;;;24;45
65606;BME280;52276;48.906;2.384;2022-07-21T02:14:10;102004.9987793;;;24;45
65606;BME280;52276;48.906;2.384;2022-07-21T02:15:10;102004.9987793;;;24;45
65606;BME280;52276;48.906;2.384;2022-07-21T02:16:10;102004.9987793;;;24;45.1
65606;BME280;52276;48.906;2.384;2022-07-21T02:17:10;102004.9987793;;;23.9;45
65606;BME280;52276;48.906;2.384;2022-07-21T02:18:10;102004.9987793;;;24;45.1
65606;BME280;52276;48.906;2.384;2022-07-21T02:19:10;102004.9987793;;;23.9;45
65606;BME280;52276;48.906;2.384;2022-07-21T02:20:10;102004.9987793;;;24;45.1
65606;BME280;52276;48.906;2.384;2022-07-21T02:21:10;102004.9987793;;;23.9;45
65606;BME280;52276;48.906;2.384;2022-07-21T02:22:10;102004.9987793;;;23.9;45
65606;BME280;52276;48.906;2.384;2022-07-21T02:23:10;102004.9987793;;;23.9;45.1
65606;BME280;52276;48.906;2.384;2022-07-21T02:24:10;102004.9987793;;;23.9;45.1
65606;BME280;52276;48.906;2.384;2022-07-21T02:25:10;102004.9987793;;;23.9;45.1
65606;BME280;52276;48.906;2.384;2022-07-21T02:26:10;102004.9987793;;;23.9;45.1
65606;BME280;52276;48.906;2.384;2022-07-21T02:27:10;102004.9987793;;;23.9;45.2
65606;BME280;52276;48.906;2.384;2022-07-21T02:28:10;102004.9987793;;;23.9;45.2
65606;BME280;52276;48.906;2.384;2022-07-21T02:29:10;102004.9987793;;;23.9;45.3
65606;BME280;52276;48.906;2.384;2022-07-21T02:30:10;102004.9987793;;;23.9;45.4
65606;BME280;52276;48.906;2.384;2022-07-21T02:31:10;102004.9987793;;;23.9;45.5
65606;BME280;52276;48.906;2.384;2022-07-21T02:32:10;102004.9987793;;;23.9;43.4
65606;BME280;52276;48.906;2.384;2022-07-21T02:33:10;102004.9987793;;;23.8;45.5
65606;BME280;52276;48.906;2.384;2022-07-21T02:34:10;102004.9987793;;;23.9;45.5
65606;BME280;52276;48.906;2.384;2022-07-21T02:35:10;102004.9987793;;;23.9;45.5
65606;BME280;52276;48.906;2.384;2022-07-21T02:36:10;102004.9987793;;;23.9;45.5
65606;BME280;52276;48.906;2.384;2022-07-21T02:37:10;102004.9987793;;;23.9;45.5
65606;BME280;52276;48.906;2.384;2022-07-21T02:38:10;102004.9987793;;;23.9;45.5
65606;BME280;52276;48.906;2.384;2022-07-21T02:39:10;102004.9987793;;;23.8;45.5
65606;BME280;52276;48.906;2.384;2022-07-21T02:40:10;102004.9987793;;;23.8;45.5
65606;BME280;52276;48.906;2.384;2022-07-21T02:41:10;102004.9987793;;;23.8;45.4
65606;BME280;52276;48.906;2.384;2022-07-21T02:42:10;102004.9987793;;;23.8;45.4
65606;BME280;52276;48.906;2.384;2022-07-21T02:43:10;102004.9987793;;;23.8;45.5
65606;BME280;52276;48.906;2.384;2022-07-21T02:44:10;102004.9987793;;;23.8;45.5
65606;BME280;52276;48.906;2.384;2022-07-21T02:45:10;102004.9987793;;;23.8;45.5
65606;BME280;52276;48.906;2.384;2022-07-21T02:46:10;102004.9987793;;;23.8;45.5
65606;BME280;52276;48.906;2.384;2022-07-21T02:47:10;102004.9987793;;;23.8;45.5
65606;BME280;52276;48.906;2.384;2022-07-21T02:48:11;102004.9987793;;;23.8;45.4
65606;BME280;52276;48.906;2.384;2022-07-21T02:49:10;102004.9987793;;;23.8;45.5
65606;BME280;52276;48.906;2.384;2022-07-21T02:50:10;102004.9987793;;;23.8;45.5
65606;BME280;52276;48.906;2.384;2022-07-21T02:51:10;102004.9987793;;;23.8;45.5
65606;BME280;52276;48.906;2.384;2022-07-21T02:52:10;102004.9987793;;;23.8;45.5
65606;BME280;52276;48.906;2.384;2022-07-21T02:53:11;102004.9987793;;;23.8;45.5
65606;BME280;52276;48.906;2.384;2022-07-21T02:54:10;102004.9987793;;;23.8;45.4
65606;BME280;52276;48.906;2.384;2022-07-21T02:55:10;102004.9987793;;;23.8;45.5
65606;BME280;52276;48.906;2.384;2022-07-21T02:56:10;102004.9987793;;;23.8;45.5
65606;BME280;52276;48.906;2.384;2022-07-21T02:57:10;102004.9987793;;;23.8;45.5
65606;BME280;52276;48.906;2.384;2022-07-21T02:58:10;102004.9987793;;;23.8;45.5
65606;BME280;52276;48.906;2.384;2022-07-21T02:59:10;102004.9987793;;;23.8;44.2
65606;BME280;52276;48.906;2.384;2022-07-21T03:00:10;102004.9987793;;;23.8;45.5
65606;BME280;52276;48.906;2.384;2022-07-21T03:01:10;102004.9987793;;;23.8;45.5
65606;BME280;52276;48.906;2.384;2022-07-21T03:02:10;102004.9987793;;;23.8;45.5
65606;BME280;52276;48.906;2.384;2022-07-21T03:03:10;102004.9987793;;;23.8;45.5
65606;BME280;52276;48.906;2.384;2022-07-21T03:04:10;102004.9987793;;;23.8;45.5
65606;BME280;52276;48.906;2.384;2022-07-21T03:05:10;102004.9987793;;;23.8;45.5
65606;BME280;52276;48.906;2.384;2022-07-21T03:06:10;102004.9987793;;;23.8;45.5
65606;BME280;52276;48.906;2.384;2022-07-21T03:07:10;102004.9987793;;;23.8;45.5
65606;BME280;52276;48.906;2.384;2022-07-21T03:08:10;102004.9987793;;;23.8;45.5
65606;BME280;52276;48.906;2.384;2022-07-21T03:09:10;102004.9987793;;;23.8;45.5
65606;BME280;52276;48.906;2.384;2022-07-21T03:10:10;102004.9987793;;;23.7;45.4
65606;BME280;52276;48.906;2.384;2022-07-21T03:11:10;102004.9987793;;;23.7;45.4
65606;BME280;52276;48.906;2.384;2022-07-21T03:12:10;102004.9987793;;;23.7;45.4
65606;BME280;52276;48.906;2.384;2022-07-21T03:13:10;102004.9987793;;;23.7;45.6
65606;BME280;52276;48.906;2.384;2022-07-21T03:14:10;102004.9987793;;;23.7;45.5
65606;BME280;52276;48.906;2.384;2022-07-21T03:15:10;102004.9987793;;;23.7;45.6
65606;BME280;52276;48.906;2.384;2022-07-21T03:16:10;102004.9987793;;;23.7;45.7
65606;BME280;52276;48.906;2.384;2022-07-21T03:17:10;102004.9987793;;;23.7;45.6
65606;BME280;52276;48.906;2.384;2022-07-21T03:18:10;102004.9987793;;;23.7;45.6
65606;BME280;52276;48.906;2.384;2022-07-21T03:19:10;102004.9987793;;;23.7;45.7
65606;BME280;52276;48.906;2.384;2022-07-21T03:20:10;102004.9987793;;;23.7;45.6
65606;BME280;52276;48.906;2.384;2022-07-21T03:21:10;102004.9987793;;;23.7;45.5
65606;BME280;52276;48.906;2.384;2022-07-21T03:22:10;102004.9987793;;;23.7;45.6
65606;BME280;52276;48.906;2.384;2022-07-21T03:23:10;102004.9987793;;;23.7;45.6
65606;BME280;52276;48.906;2.384;2022-07-21T03:24:10;102004.9987793;;;23.7;45.6
65606;BME280;52276;48.906;2.384;2022-07-21T03:25:10;102004.9987793;;;23.7;45.6
65606;BME280;52276;48.906;2.384;2022-07-21T03:26:10;102004.9987793;;;23.7;45.7
65606;BME280;52276;48.906;2.384;2022-07-21T03:27:10;102004.9987793;;;23.7;45.7
65606;BME280;52276;48.906;2.384;2022-07-21T03:28:10;102004.9987793;;;23.7;45.7
65606;BME280;52276;48.906;2.384;2022-07-21T03:29:10;102004.9987793;;;23.7;45.7
65606;BME280;52276;48.906;2.384;2022-07-21T03:30:10;102004.9987793;;;23.7;45.7
65606;BME280;52276;48.906;2.384;2022-07-21T03:31:10;102004.9987793;;;23.7;45.7
65606;BME280;52276;48.906;2.384;2022-07-21T03:32:10;102004.9987793;;;23.7;45.7
65606;BME280;52276;48.906;2.384;2022-07-21T03:33:10;102004.9987793;;;23.7;45.7
65606;BME280;52276;48.906;2.384;2022-07-21T03:34:10;102004.9987793;;;23.7;45.7
65606;BME280;52276;48.906;2.384;2022-07-21T03:35:10;102004.9987793;;;23.7;45.7
65606;BME280;52276;48.906;2.384;2022-07-21T03:36:10;102004.9987793;;;23.7;45.7
65606;BME280;52276;48.906;2.384;2022-07-21T03:37:10;102004.9987793;;;23.7;45.7
65606;BME280;52276;48.906;2.384;2022-07-21T03:38:10;102004.9987793;;;23.7;45.7
65606;BME280;52276;48.906;2.384;2022-07-21T03:39:10;102004.9987793;;;23.6;45.6
65606;BME280;52276;48.906;2.384;2022-07-21T03:40:11;102004.9987793;;;23.6;43.6
65606;BME280;52276;48.906;2.384;2022-07-21T03:41:10;102004.9987793;;;23.6;45.6
65606;BME280;52276;48.906;2.384;2022-07-21T03:42:10;102004.9987793;;;23.6;45.6
65606;BME280;52276;48.906;2.384;2022-07-21T03:43:10;102004.9987793;;;23.6;45.6
65606;BME280;52276;48.906;2.384;2022-07-21T03:44:10;102004.9987793;;;23.6;45.6
65606;BME280;52276;48.906;2.384;2022-07-21T03:45:10;102004.9987793;;;23.6;45.6
65606;BME280;52276;48.906;2.384;2022-07-21T03:46:10;102004.9987793;;;23.6;45.6
65606;BME280;52276;48.906;2.384;2022-07-21T03:47:10;102004.9987793;;;23.6;45.6
65606;BME280;52276;48.906;2.384;2022-07-21T03:48:10;102004.9987793;;;23.6;45.6
65606;BME280;52276;48.906;2.384;2022-07-21T03:49:10;102004.9987793;;;23.6;45.6
65606;BME280;52276;48.906;2.384;2022-07-21T03:50:10;102004.9987793;;;23.6;45.6
65606;BME280;52276;48.906;2.384;2022-07-21T03:51:10;102004.9987793;;;23.6;45.5
65606;BME280;52276;48.906;2.384;2022-07-21T03:52:10;102004.9987793;;;23.6;45.5
65606;BME280;52276;48.906;2.384;2022-07-21T03:53:10;102004.9987793;;;23.6;45.5
65606;BME280;52276;48.906;2.384;2022-07-21T03:54:10;102004.9987793;;;23.6;45.5
65606;BME280;52276;48.906;2.384;2022-07-21T03:55:10;102004.9987793;;;23.6;45.5
65606;BME280;52276;48.906;2.384;2022-07-21T03:56:10;102004.9987793;;;23.5;45.5
65606;BME280;52276;48.906;2.384;2022-07-21T03:57:10;102004.9987793;;;23.5;45.5
65606;BME280;52276;48.906;2.384;2022-07-21T03:58:11;102004.9987793;;;23.5;45.5
65606;BME280;52276;48.906;2.384;2022-07-21T03:59:10;102004.9987793;;;23.5;45.4
65606;BME280;52276;48.906;2.384;2022-07-21T04:00:11;102004.9987793;;;23.5;45.5
65606;BME280;52276;48.906;2.384;2022-07-21T04:01:10;102004.9987793;;;23.5;45.5
65606;BME280;52276;48.906;2.384;2022-07-21T04:02:10;102004.9987793;;;23.4;45.6
65606;BME280;52276;48.906;2.384;2022-07-21T04:03:10;102004.9987793;;;23.5;45.6
65606;BME280;52276;48.906;2.384;2022-07-21T04:04:10;102004.9987793;;;23.4;45.6
65606;BME280;52276;48.906;2.384;2022-07-21T04:05:10;102004.9987793;;;23.4;45.6
65606;BME280;52276;48.906;2.384;2022-07-21T04:06:10;102004.9987793;;;23.4;45.7
65606;BME280;52276;48.906;2.384;2022-07-21T04:07:10;102004.9987793;;;23.4;45.7
65606;BME280;52276;48.906;2.384;2022-07-21T04:08:11;102004.9987793;;;23.4;45.7
65606;BME280;52276;48.906;2.384;2022-07-21T04:09:10;102004.9987793;;;23.4;45.7
65606;BME280;52276;48.906;2.384;2022-07-21T04:10:11;102004.9987793;;;23.4;45.7
65606;BME280;52276;48.906;2.384;2022-07-21T04:11:10;102004.9987793;;;23.4;45.8
65606;BME280;52276;48.906;2.384;2022-07-21T04:12:10;102004.9987793;;;23.4;45.7
65606;BME280;52276;48.906;2.384;2022-07-21T04:13:11;102004.9987793;;;23.4;45.8
65606;BME280;52276;48.906;2.384;2022-07-21T04:14:10;102004.9987793;;;23.4;45.8
65606;BME280;52276;48.906;2.384;2022-07-21T04:15:10;102004.9987793;;;23.4;45.9
65606;BME280;52276;48.906;2.384;2022-07-21T04:16:11;102004.9987793;;;23.4;45.9
65606;BME280;52276;48.906;2.384;2022-07-21T04:17:10;102004.9987793;;;23.4;46
65606;BME280;52276;48.906;2.384;2022-07-21T04:18:10;102004.9987793;;;23.3;46
65606;BME280;52276;48.906;2.384;2022-07-21T04:19:10;102004.9987793;;;23.3;46
65606;BME280;52276;48.906;2.384;2022-07-21T04:20:11;102004.9987793;;;23.3;46.1
65606;BME280;52276;48.906;2.384;2022-07-21T04:21:10;102004.9987793;;;23.3;46.1
65606;BME280;52276;48.906;2.384;2022-07-21T04:22:10;102004.9987793;;;23.3;46.1
65606;BME280;52276;48.906;2.384;2022-07-21T04:23:10;102004.9987793;;;23.3;46.1
65606;BME280;52276;48.906;2.384;2022-07-21T04:24:11;102004.9987793;;;23.3;46.1
65606;BME280;52276;48.906;2.384;2022-07-21T04:25:10;102004.9987793;;;23.3;46.1
65606;BME280;52276;48.906;2.384;2022-07-21T04:26:11;102004.9987793;;;23.3;46.2
65606;BME280;52276;48.906;2.384;2022-07-21T04:27:10;102004.9987793;;;23.3;46.2
65606;BME280;52276;48.906;2.384;2022-07-21T04:28:10;102004.9987793;;;23.3;46.3
65606;BME280;52276;48.906;2.384;2022-07-21T04:29:10;102004.9987793;;;23.3;46.3
65606;BME280;52276;48.906;2.384;2022-07-21T04:30:12;102004.9987793;;;23.3;44.4
65606;BME280;52276;48.906;2.384;2022-07-21T04:31:10;102004.9987793;;;23.3;46.4
65606;BME280;52276;48.906;2.384;2022-07-21T04:32:10;102004.9987793;;;23.3;46.3
65606;BME280;52276;48.906;2.384;2022-07-21T04:33:13;102004.9987793;;;23.3;46.4
65606;BME280;52276;48.906;2.384;2022-07-21T04:34:10;102004.9987793;;;23.3;46.4
65606;BME280;52276;48.906;2.384;2022-07-21T04:35:10;102004.9987793;;;23.3;46.4
65606;BME280;52276;48.906;2.384;2022-07-21T04:36:10;102004.9987793;;;23.3;46.4
65606;BME280;52276;48.906;2.384;2022-07-21T04:37:10;102004.9987793;;;23.3;46.5
65606;BME280;52276;48.906;2.384;2022-07-21T04:38:10;102004.9987793;;;23.3;46.4
65606;BME280;52276;48.906;2.384;2022-07-21T04:39:10;102004.9987793;;;23.3;46.4
65606;BME280;52276;48.906;2.384;2022-07-21T04:40:11;102004.9987793;;;23.3;46.5
65606;BME280;52276;48.906;2.384;2022-07-21T04:41:10;102004.9987793;;;23.4;46.5
65606;BME280;52276;48.906;2.384;2022-07-21T04:42:10;102004.9987793;;;23.3;46.5
65606;BME280;52276;48.906;2.384;2022-07-21T04:43:10;102004.9987793;;;23.3;46.5
65606;BME280;52276;48.906;2.384;2022-07-21T04:44:10;102004.9987793;;;23.3;46.4
65606;BME280;52276;48.906;2.384;2022-07-21T04:45:11;102004.9987793;;;23.3;46.4
65606;BME280;52276;48.906;2.384;2022-07-21T04:46:10;102004.9987793;;;23.3;46.4
65606;BME280;52276;48.906;2.384;2022-07-21T04:47:10;102004.9987793;;;23.4;46.6
65606;BME280;52276;48.906;2.384;2022-07-21T04:48:10;102004.9987793;;;23.3;46.5
65606;BME280;52276;48.906;2.384;2022-07-21T04:49:10;102004.9987793;;;23.4;46.6
65606;BME280;52276;48.906;2.384;2022-07-21T04:50:10;102004.9987793;;;23.3;46.5
65606;BME280;52276;48.906;2.384;2022-07-21T04:51:10;102004.9987793;;;23.4;46.5
65606;BME280;52276;48.906;2.384;2022-07-21T04:52:10;102004.9987793;;;23.4;46.5
65606;BME280;52276;48.906;2.384;2022-07-21T04:53:10;102004.9987793;;;23.3;46.4
65606;BME280;52276;48.906;2.384;2022-07-21T04:54:10;102004.9987793;;;23.4;46.5
65606;BME280;52276;48.906;2.384;2022-07-21T04:55:11;102004.9987793;;;23.3;46.5
65606;BME280;52276;48.906;2.384;2022-07-21T04:56:10;102004.9987793;;;23.4;46.6
65606;BME280;52276;48.906;2.384;2022-07-21T04:57:10;102004.9987793;;;23.4;46.6
65606;BME280;52276;48.906;2.384;2022-07-21T04:58:10;102004.9987793;;;23.4;46.5
65606;BME280;52276;48.906;2.384;2022-07-21T04:59:10;102004.9987793;;;23.4;46.6
65606;BME280;52276;48.906;2.384;2022-07-21T05:00:11;102004.9987793;;;23.3;46.5
65606;BME280;52276;48.906;2.384;2022-07-21T05:01:10;102004.9987793;;;23.4;46.6
65606;BME280;52276;48.906;2.384;2022-07-21T05:02:10;102004.9987793;;;23.4;46.6